createdAt,value
2019-02-18T00:01:02.551Z,100334.50
2019-02-18T00:03:35.663Z,100333.47
2019-02-18T00:06:10.154Z,100335.30
2019-02-18T00:08:43.784Z,100336.61
2019-02-18T00:11:21.278Z,100333.75
2019-02-18T00:13:56.954Z,100340.02
2019-02-18T00:16:31.354Z,100342.14
2019-02-18T00:19:04.064Z,100341.58
2019-02-18T00:21:36.935Z,100335.93
2019-02-18T00:24:09.483Z,100341.05
2019-02-18T00:26:42.574Z,100340.52
2019-02-18T00:29:17.829Z,100344.11
2019-02-18T00:31:50.332Z,100337.32
2019-02-18T00:34:23.970Z,100342.84
2019-02-18T00:36:58.000Z,100345.17
2019-02-18T00:39:30.633Z,100345.75
2019-02-18T00:42:04.131Z,100349.79
2019-02-18T00:44:37.052Z,100348.48
2019-02-18T00:47:09.658Z,100350.41
2019-02-18T00:49:42.166Z,100344.38
2019-02-18T00:52:16.029Z,100345.03
2019-02-18T00:54:48.834Z,100341.95
2019-02-18T00:57:21.638Z,100346.86
2019-02-18T00:59:54.571Z,100342.56
2019-02-18T01:02:27.195Z,100338.48
2019-02-18T01:05:00.760Z,100340.47
2019-02-18T01:07:36.895Z,100335.94
2019-02-18T01:10:12.069Z,100336.54
2019-02-18T01:12:44.655Z,100339.64
2019-02-18T01:15:17.045Z,100337.48
2019-02-18T01:17:49.585Z,100339.02
2019-02-18T01:20:21.969Z,100338.55
2019-02-18T01:22:55.470Z,100338.55
2019-02-18T01:25:28.185Z,100332.23
2019-02-18T01:28:00.747Z,100334.45
2019-02-18T01:30:33.750Z,100334.61
2019-02-18T01:33:06.283Z,100331.07
2019-02-18T01:35:38.871Z,100332.16
2019-02-18T01:38:11.603Z,100329.39
2019-02-18T01:40:44.265Z,100335.89
2019-02-18T01:43:17.664Z,100333.95
2019-02-18T01:45:54.531Z,100331.23
2019-02-18T01:48:28.073Z,100331.94
2019-02-18T01:51:00.763Z,100328.69
2019-02-18T01:53:33.594Z,100331.48
2019-02-18T01:56:06.233Z,100325.53
2019-02-18T01:58:39.081Z,100321.51
2019-02-18T02:01:11.994Z,100318.97
2019-02-18T02:03:44.596Z,100323.27
2019-02-18T02:06:17.882Z,100319.02
2019-02-18T02:08:51.766Z,100319.65
2019-02-18T02:11:24.345Z,100320.52
2019-02-18T02:13:56.953Z,100308.27
2019-02-18T02:16:31.819Z,100312.82
2019-02-18T02:19:04.418Z,100307.89
2019-02-18T02:21:37.168Z,100311.52
2019-02-18T02:24:11.308Z,100306.42
2019-02-18T02:26:44.511Z,100306.09
2019-02-18T02:29:17.012Z,100303.88
2019-02-18T02:31:49.964Z,100305.05
2019-02-18T02:34:23.075Z,100303.11
2019-02-18T02:36:56.597Z,100299.58
2019-02-18T02:39:29.743Z,100301.22
2019-02-18T02:42:04.265Z,100297.13
2019-02-18T02:44:36.960Z,100301.53
2019-02-18T02:47:10.776Z,100297.83
2019-02-18T02:49:43.366Z,100291.59
2019-02-18T02:52:16.591Z,100288.86
2019-02-18T02:54:49.352Z,100288.99
2019-02-18T02:57:21.941Z,100296.29
2019-02-18T02:59:54.478Z,100295.49
2019-02-18T03:02:27.731Z,100296.20
2019-02-18T03:05:00.474Z,100294.70
2019-02-18T03:07:33.036Z,100296.04
2019-02-18T03:10:06.475Z,100296.59
2019-02-18T03:12:39.523Z,100294.53
2019-02-18T03:15:14.862Z,100294.58
2019-02-18T03:17:47.847Z,100294.15
2019-02-18T03:20:20.763Z,100292.29
2019-02-18T03:22:53.421Z,100291.62
2019-02-18T03:25:28.789Z,100288.09
2019-02-18T03:28:13.593Z,100287.95
2019-02-18T03:31:01.976Z,100285.85
2019-02-18T03:33:45.360Z,100287.38
2019-02-18T03:36:17.952Z,100290.16
2019-02-18T03:38:52.036Z,100293.16
2019-02-18T03:41:24.547Z,100294.37
2019-02-18T03:43:57.077Z,100298.75
2019-02-18T03:46:31.893Z,100300.91
2019-02-18T03:49:04.510Z,100296.91
2019-02-18T03:51:37.056Z,100292.18
2019-02-18T03:54:10.237Z,100284.61
2019-02-18T03:56:42.677Z,100289.56
2019-02-18T03:59:15.215Z,100286.46
2019-02-18T04:01:49.260Z,100286.00
2019-02-18T04:04:21.893Z,100281.92
2019-02-18T04:06:54.422Z,100284.27
2019-02-18T04:09:27.294Z,100286.90
2019-02-18T04:11:59.896Z,100283.40
2019-02-18T04:14:33.789Z,100283.57
2019-02-18T04:17:06.991Z,100279.04
2019-02-18T04:19:40.476Z,100283.34
2019-02-18T04:22:13.151Z,100278.91
2019-02-18T04:24:46.112Z,100280.20
2019-02-18T04:27:18.626Z,100280.61
2019-02-18T04:29:51.448Z,100274.47
2019-02-18T04:32:24.302Z,100279.31
2019-02-18T04:34:56.769Z,100279.30
2019-02-18T04:37:29.444Z,100278.94
2019-02-18T04:40:02.428Z,100277.22
2019-02-18T04:42:35.621Z,100274.96
2019-02-18T04:45:09.210Z,100272.69
2019-02-18T04:47:44.467Z,100275.66
2019-02-18T04:50:17.143Z,100273.05
2019-02-18T04:52:49.523Z,100275.21
2019-02-18T04:55:23.450Z,100275.21
2019-02-18T04:57:56.068Z,100276.00
2019-02-18T05:00:29.786Z,100275.66
2019-02-18T05:03:03.156Z,100277.99
2019-02-18T05:05:36.460Z,100277.70
2019-02-18T05:08:08.978Z,100281.72
2019-02-18T05:10:43.646Z,100282.35
2019-02-18T05:13:16.226Z,100284.47
2019-02-18T05:15:50.010Z,100288.52
2019-02-18T05:18:23.695Z,100286.45
2019-02-18T05:20:56.677Z,100284.62
2019-02-18T05:23:29.189Z,100287.82
2019-02-18T05:26:03.809Z,100290.34
2019-02-18T05:28:36.858Z,100282.44
2019-02-18T05:31:09.364Z,100279.91
2019-02-18T05:33:43.270Z,100283.08
2019-02-18T05:36:15.814Z,100282.22
2019-02-18T05:38:48.306Z,100280.17
2019-02-18T05:41:21.809Z,100277.16
2019-02-18T05:43:55.026Z,100270.52
2019-02-18T05:46:29.090Z,100273.12
2019-02-18T05:49:03.191Z,100268.33
2019-02-18T05:51:35.986Z,100273.22
2019-02-18T05:54:08.476Z,100270.34
2019-02-18T05:56:41.316Z,100269.14
2019-02-18T05:59:13.908Z,100261.38
2019-02-18T06:01:47.478Z,100262.61
2019-02-18T06:04:21.139Z,100258.42
2019-02-18T06:06:53.772Z,100258.02
2019-02-18T06:09:30.178Z,100256.28
2019-02-18T06:12:04.644Z,100258.27
2019-02-18T06:14:37.026Z,100262.26
2019-02-18T06:17:09.632Z,100258.87
2019-02-18T06:19:43.002Z,100253.00
2019-02-18T06:22:15.679Z,100254.46
2019-02-18T06:24:50.264Z,100259.05
2019-02-18T06:27:23.290Z,100260.76
2019-02-18T06:29:56.226Z,100263.42
2019-02-18T06:32:30.504Z,100262.33
2019-02-18T06:35:04.223Z,100252.81
2019-02-18T06:37:37.202Z,100249.29
2019-02-18T06:40:10.429Z,100243.13
2019-02-18T06:42:43.927Z,100244.48
2019-02-18T06:45:31.559Z,100240.84
2019-02-18T06:48:09.795Z,100243.90
2019-02-18T06:50:43.059Z,100244.78
2019-02-18T06:53:16.455Z,100253.34
2019-02-18T06:55:49.019Z,100255.80
2019-02-18T06:58:28.259Z,100258.06
2019-02-18T07:01:06.263Z,100251.66
2019-02-18T07:03:45.539Z,100252.88
2019-02-18T07:06:38.721Z,100249.11
2019-02-18T07:09:31.119Z,100252.70
2019-02-18T07:12:09.818Z,100256.52
2019-02-18T07:14:42.783Z,100252.81
2019-02-18T07:17:19.162Z,100253.08
2019-02-18T07:19:51.798Z,100251.38
2019-02-18T07:22:26.042Z,100246.39
2019-02-18T07:25:00.016Z,100248.27
2019-02-18T07:27:32.406Z,100246.63
2019-02-18T07:30:14.132Z,100244.16
2019-02-18T07:32:47.289Z,100246.44
2019-02-18T07:35:20.646Z,100244.70
2019-02-18T07:37:53.453Z,100244.50
2019-02-18T07:40:25.904Z,100244.45
2019-02-18T07:42:58.561Z,100247.99
2019-02-18T07:45:31.062Z,100247.30
2019-02-18T07:48:03.926Z,100244.91
2019-02-18T07:50:37.527Z,100243.40
2019-02-18T07:53:20.541Z,100247.16
2019-02-18T07:55:58.335Z,100244.63
2019-02-18T07:58:32.210Z,100242.77
2019-02-18T08:01:05.861Z,100239.95
2019-02-18T08:03:38.388Z,100240.81
2019-02-18T08:06:11.589Z,100240.48
2019-02-18T08:08:44.396Z,100240.98
2019-02-18T08:11:18.300Z,100239.31
2019-02-18T08:13:52.208Z,100238.98
2019-02-18T08:16:39.433Z,100239.00
2019-02-18T08:19:19.692Z,100242.25
2019-02-18T08:22:32.498Z,100241.48
2019-02-18T08:25:13.073Z,100243.87
2019-02-18T08:27:45.738Z,100242.93
2019-02-18T08:30:19.342Z,100240.27
2019-02-18T08:33:05.850Z,100239.87
2019-02-18T08:35:40.294Z,100237.03
2019-02-18T08:38:14.566Z,100234.30
2019-02-18T08:40:47.431Z,100232.70
2019-02-18T08:43:23.331Z,100232.34
2019-02-18T08:45:56.189Z,100230.77
2019-02-18T08:48:30.280Z,100234.08
2019-02-18T08:51:13.574Z,100224.94
2019-02-18T08:53:48.001Z,100229.03
2019-02-18T08:56:22.263Z,100228.17
2019-02-18T08:58:56.768Z,100231.56
2019-02-18T09:01:48.027Z,100228.72
2019-02-18T09:04:20.814Z,100228.72
2019-02-18T09:06:56.785Z,100226.19
2019-02-18T09:09:32.288Z,100220.50
2019-02-18T09:12:06.538Z,100215.72
2019-02-18T09:14:40.053Z,100210.83
2019-02-18T09:17:17.238Z,100212.44
2019-02-18T09:19:55.010Z,100213.47
2019-02-18T09:22:48.299Z,100215.45
2019-02-18T09:25:43.393Z,100215.81
2019-02-18T09:28:19.071Z,100208.11
2019-02-18T09:30:55.234Z,100211.90
2019-02-18T09:33:27.835Z,100203.28
2019-02-18T09:36:04.837Z,100200.66
2019-02-18T09:38:37.757Z,100194.84
2019-02-18T09:41:11.275Z,100192.29
2019-02-18T09:43:44.077Z,100200.02
2019-02-18T09:46:17.543Z,100195.45
2019-02-18T09:48:50.780Z,100198.00
2019-02-18T09:51:24.819Z,100195.53
2019-02-18T09:53:58.079Z,100189.80
2019-02-18T09:56:36.810Z,100192.95
2019-02-18T09:59:12.373Z,100190.48
2019-02-18T10:01:44.999Z,100194.87
2019-02-18T10:04:19.174Z,100189.52
2019-02-18T10:06:51.795Z,100191.75
2019-02-18T10:09:25.879Z,100188.11
2019-02-18T10:12:00.541Z,100188.05
2019-02-18T10:14:34.987Z,100183.14
2019-02-18T10:17:09.061Z,100184.16
2019-02-18T10:19:47.805Z,100176.55
2019-02-18T10:22:21.548Z,100180.41
2019-02-18T10:24:57.468Z,100179.95
2019-02-18T10:27:32.061Z,100175.06
2019-02-18T10:30:07.214Z,100175.75
2019-02-18T10:32:43.939Z,100171.00
2019-02-18T10:35:17.310Z,100169.66
2019-02-18T10:37:55.143Z,100164.07
2019-02-18T10:40:29.015Z,100155.17
2019-02-18T10:43:03.333Z,100158.70
2019-02-18T10:45:37.448Z,100152.34
2019-02-18T10:48:10.198Z,100151.53
2019-02-18T10:50:42.843Z,100146.98
2019-02-18T10:53:22.563Z,100152.91
2019-02-18T10:55:59.824Z,100151.20
2019-02-18T10:58:33.352Z,100144.37
2019-02-18T11:01:07.364Z,100144.34
2019-02-18T11:03:39.770Z,100140.79
2019-02-18T11:06:12.342Z,100141.34
2019-02-18T11:08:48.045Z,100141.44
2019-02-18T11:11:20.558Z,100136.52
2019-02-18T11:13:56.949Z,100134.83
2019-02-18T11:16:30.048Z,100134.35
2019-02-18T11:19:02.699Z,100133.41
2019-02-18T11:21:35.407Z,100121.95
2019-02-18T11:24:08.552Z,100122.42
2019-02-18T11:26:41.924Z,100109.29
2019-02-18T11:29:16.443Z,100116.22
2019-02-18T11:31:48.980Z,100112.95
2019-02-18T11:34:21.656Z,100108.52
2019-02-18T11:36:55.134Z,100103.78
2019-02-18T11:39:30.363Z,100099.06
2019-02-18T11:42:03.494Z,100100.92
2019-02-18T11:44:36.649Z,100098.61
2019-02-18T11:47:11.140Z,100099.02
2019-02-18T11:49:44.537Z,100098.67
2019-02-18T11:52:17.253Z,100095.89
2019-02-18T11:54:49.837Z,100084.83
2019-02-18T11:57:22.330Z,100083.28
2019-02-18T11:59:59.245Z,100075.85
2019-02-18T12:02:31.818Z,100078.17
2019-02-18T12:05:11.311Z,100077.37
2019-02-18T12:07:46.746Z,100071.31
2019-02-18T12:10:22.415Z,100065.73
2019-02-18T12:12:55.997Z,100061.45
2019-02-18T12:15:30.340Z,100058.33
2019-02-18T12:18:05.146Z,100058.38
2019-02-18T12:20:40.379Z,100054.05
2019-02-18T12:23:13.387Z,100045.38
2019-02-18T12:25:47.971Z,100038.67
2019-02-18T12:28:22.274Z,100038.23
2019-02-18T12:30:56.265Z,100035.64
2019-02-18T12:33:31.628Z,100029.97
2019-02-18T12:36:05.491Z,100022.21
2019-02-18T12:38:41.153Z,100018.30
2019-02-18T12:41:18.935Z,100017.34
2019-02-18T12:43:51.989Z,100007.95
2019-02-18T12:46:25.420Z,100001.70
2019-02-18T12:48:58.572Z,100000.70
2019-02-18T12:51:31.815Z,99999.59
2019-02-18T12:54:06.084Z,99993.80
2019-02-18T12:56:39.652Z,99988.96
2019-02-18T12:59:12.252Z,99975.17
2019-02-18T13:01:47.999Z,99975.73
2019-02-18T13:04:22.220Z,99966.23
2019-02-18T13:06:57.180Z,99964.22
2019-02-18T13:09:31.311Z,99959.14
2019-02-18T13:12:06.851Z,99951.88
2019-02-18T13:14:41.311Z,99954.14
2019-02-18T13:17:15.621Z,99948.83
2019-02-18T13:19:50.698Z,99939.19
2019-02-18T13:22:23.307Z,99934.01
2019-02-18T13:24:56.596Z,99926.49
2019-02-18T13:27:34.711Z,99917.73
2019-02-18T13:30:13.659Z,99909.27
2019-02-18T13:32:46.581Z,99904.41
2019-02-18T13:35:21.642Z,99901.05
2019-02-18T13:37:55.288Z,99896.91
2019-02-18T13:40:28.102Z,99897.58
2019-02-18T13:43:00.995Z,99895.73
2019-02-18T13:45:33.454Z,99898.80
2019-02-18T13:48:06.104Z,99897.31
2019-02-18T13:50:38.618Z,99892.97
2019-02-18T13:53:13.883Z,99888.23
2019-02-18T13:55:47.478Z,99886.92
2019-02-18T13:58:26.064Z,99883.80
2019-02-18T14:00:58.777Z,99879.23
2019-02-18T14:03:33.775Z,99876.12
2019-02-18T14:06:06.676Z,99870.13
2019-02-18T14:08:39.182Z,99865.65
2019-02-18T14:11:13.758Z,99867.38
2019-02-18T14:13:48.623Z,99864.39
2019-02-18T14:16:21.781Z,99865.98
2019-02-18T14:19:00.079Z,99867.84
2019-02-18T14:21:35.239Z,99868.33
2019-02-18T14:24:12.996Z,99872.52
2019-02-18T14:26:48.052Z,99872.83
2019-02-18T14:29:20.734Z,99866.16
2019-02-18T14:31:54.913Z,99867.86
2019-02-18T14:34:32.780Z,99874.30
2019-02-18T14:37:07.219Z,99868.61
2019-02-18T14:39:40.437Z,99863.78
2019-02-18T14:42:14.480Z,99858.73
2019-02-18T14:44:47.424Z,99861.98
2019-02-18T14:47:23.964Z,99853.11
2019-02-18T14:49:57.624Z,99853.58
2019-02-18T14:52:31.434Z,99854.94
2019-02-18T14:55:05.706Z,99850.44
2019-02-18T14:57:38.845Z,99856.49
2019-02-18T15:00:24.428Z,99854.56
2019-02-18T15:03:02.660Z,99845.78
2019-02-18T15:05:36.157Z,99848.25
2019-02-18T15:08:11.330Z,99844.42
2019-02-18T15:10:47.689Z,99835.33
2019-02-18T15:13:34.486Z,99841.52
2019-02-18T15:16:12.163Z,99840.91
2019-02-18T15:18:44.834Z,99838.80
2019-02-18T15:21:19.851Z,99840.71
2019-02-18T15:23:54.050Z,99836.86
2019-02-18T15:26:28.783Z,99839.44
2019-02-18T15:29:01.854Z,99841.31
2019-02-18T15:31:36.949Z,99839.59
2019-02-18T15:34:10.756Z,99843.72
2019-02-18T15:36:45.301Z,99842.58
2019-02-18T15:39:18.697Z,99843.02
2019-02-18T15:41:54.816Z,99838.56
2019-02-18T15:44:33.571Z,99841.98
2019-02-18T15:47:06.660Z,99841.94
2019-02-18T15:49:41.969Z,99840.54
2019-02-18T15:52:18.022Z,99846.09
2019-02-18T15:55:03.400Z,99840.87
2019-02-18T15:57:53.680Z,99838.16
2019-02-18T16:00:29.881Z,99850.49
2019-02-18T16:03:04.420Z,99848.91
2019-02-18T16:05:39.196Z,99853.98
2019-02-18T16:08:15.674Z,99853.44
2019-02-18T16:10:56.419Z,99853.27
2019-02-18T16:13:33.909Z,99861.39
2019-02-18T16:16:07.322Z,99861.09
2019-02-18T16:18:40.027Z,99867.67
2019-02-18T16:21:13.263Z,99861.28
2019-02-18T16:23:47.196Z,99858.64
2019-02-18T16:26:20.982Z,99857.80
2019-02-18T16:28:57.162Z,99863.58
2019-02-18T16:31:30.610Z,99863.45
2019-02-18T16:34:05.093Z,99857.46
2019-02-18T16:36:40.435Z,99856.73
2019-02-18T16:39:16.379Z,99854.23
2019-02-18T16:41:50.587Z,99839.52
2019-02-18T16:44:26.180Z,99839.42
2019-02-18T16:46:59.818Z,99850.00
2019-02-18T16:49:37.060Z,99851.83
2019-02-18T16:52:13.671Z,99851.17
2019-02-18T16:54:47.214Z,99851.91
2019-02-18T16:57:22.723Z,99847.43
2019-02-18T16:59:57.306Z,99854.22
2019-02-18T17:02:44.021Z,99856.73
2019-02-18T17:05:17.530Z,99864.34
2019-02-18T17:07:56.411Z,99871.89
2019-02-18T17:10:30.582Z,99872.66
2019-02-18T17:13:11.095Z,99870.55
2019-02-18T17:15:47.387Z,99872.71
2019-02-18T17:18:22.039Z,99868.10
2019-02-18T17:20:55.533Z,99877.16
2019-02-18T17:23:29.824Z,99871.54
2019-02-18T17:26:02.540Z,99871.37
2019-02-18T17:28:36.572Z,99876.52
2019-02-18T17:31:09.404Z,99874.22
2019-02-18T17:33:46.599Z,99875.14
2019-02-18T17:36:24.988Z,99870.99
2019-02-18T17:39:05.040Z,99866.37
2019-02-18T17:41:46.367Z,99868.21
2019-02-18T17:44:21.227Z,99869.75
2019-02-18T17:46:56.112Z,99867.97
2019-02-18T17:49:30.551Z,99863.02
2019-02-18T17:52:03.084Z,99868.42
2019-02-18T17:54:41.389Z,99868.94
2019-02-18T17:57:19.564Z,99868.06
2019-02-18T17:59:52.145Z,99873.83
2019-02-18T18:02:30.314Z,99875.65
2019-02-18T18:05:08.631Z,99876.42
2019-02-18T18:07:42.683Z,99888.11
2019-02-18T18:10:20.071Z,99885.26
2019-02-18T18:12:56.713Z,99884.41
2019-02-18T18:15:35.175Z,99885.66
2019-02-18T18:18:08.619Z,99884.02
2019-02-18T18:20:44.758Z,99888.31
2019-02-18T18:23:21.227Z,99885.80
2019-02-18T18:26:04.927Z,99887.80
2019-02-18T18:28:39.037Z,99891.76
2019-02-18T18:31:12.250Z,99888.26
2019-02-18T18:33:45.924Z,99897.25
2019-02-18T18:36:21.660Z,99894.22
2019-02-18T18:39:04.895Z,99904.73
2019-02-18T18:41:42.212Z,99908.67
2019-02-18T18:44:15.693Z,99913.13
2019-02-18T18:46:50.249Z,99913.48
2019-02-18T18:49:30.912Z,99909.17
2019-02-18T18:52:05.076Z,99906.17
2019-02-18T18:54:39.223Z,99903.88
2019-02-18T18:57:13.474Z,99905.97
2019-02-18T18:59:58.304Z,99906.83
2019-02-18T19:02:31.680Z,99906.19
2019-02-18T19:05:08.327Z,99909.16
2019-02-18T19:07:43.720Z,99912.16
2019-02-18T19:10:25.336Z,99915.44
2019-02-18T19:13:00.705Z,99916.81
2019-02-18T19:15:34.388Z,99916.11
2019-02-18T19:18:10.211Z,99920.48
2019-02-18T19:20:45.533Z,99916.89
2019-02-18T19:23:22.771Z,99918.36
2019-02-18T19:26:01.655Z,99918.84
2019-02-18T19:28:36.728Z,99924.73
2019-02-18T19:31:13.277Z,99924.89
2019-02-18T19:33:47.014Z,99926.68
2019-02-18T19:36:45.321Z,99929.03
2019-02-18T19:39:47.980Z,99929.94
2019-02-18T19:42:31.636Z,99925.77
2019-02-18T19:45:13.456Z,99921.73
2019-02-18T19:47:51.998Z,99918.45
2019-02-18T19:50:26.393Z,99923.81
2019-02-18T19:53:01.811Z,99922.23
2019-02-18T19:55:50.719Z,99923.81
2019-02-18T19:58:36.779Z,99932.09
2019-02-18T20:01:11.433Z,99928.49
2019-02-18T20:03:46.598Z,99929.78
2019-02-18T20:06:30.354Z,99928.05
2019-02-18T20:09:12.871Z,99930.57
2019-02-18T20:11:49.606Z,99932.99
2019-02-18T20:14:31.526Z,99934.66
2019-02-18T20:17:09.711Z,99926.86
2019-02-18T20:19:44.815Z,99927.23
2019-02-18T20:22:21.679Z,99923.80
2019-02-18T20:24:55.706Z,99927.47
2019-02-18T20:27:30.462Z,99926.66
2019-02-18T20:30:12.718Z,99929.17
2019-02-18T20:32:45.626Z,99927.99
2019-02-18T20:35:24.008Z,99929.16
2019-02-18T20:37:57.595Z,99927.71
2019-02-18T20:40:31.654Z,99928.17
2019-02-18T20:43:06.701Z,99922.19
2019-02-18T20:45:39.979Z,99920.50
2019-02-18T20:48:13.865Z,99926.58
2019-02-18T20:50:49.688Z,99925.13
2019-02-18T20:53:24.949Z,99926.48
2019-02-18T20:55:57.679Z,99928.58
2019-02-18T20:58:33.569Z,99920.04
2019-02-18T21:01:07.588Z,99921.98
2019-02-18T21:03:42.886Z,99919.53
2019-02-18T21:06:23.874Z,99925.27
2019-02-18T21:09:00.656Z,99926.18
2019-02-18T21:11:34.039Z,99930.60
2019-02-18T21:14:06.672Z,99927.21
2019-02-18T21:16:39.498Z,99928.97
2019-02-18T21:19:12.201Z,99932.27
2019-02-18T21:21:51.724Z,99930.85
2019-02-18T21:24:28.735Z,99931.16
2019-02-18T21:27:02.843Z,99937.94
2019-02-18T21:29:43.895Z,99933.09
2019-02-18T21:32:25.179Z,99936.52
2019-02-18T21:34:57.791Z,99933.98
2019-02-18T21:37:31.974Z,99930.28
2019-02-18T21:40:06.210Z,99937.12
2019-02-18T21:42:39.057Z,99940.63
2019-02-18T21:45:20.337Z,99946.22
2019-02-18T21:47:55.460Z,99941.91
2019-02-18T21:50:29.143Z,99943.16
2019-02-18T21:53:02.847Z,99939.98
2019-02-18T21:55:44.747Z,99942.67
2019-02-18T21:58:19.603Z,99943.14
2019-02-18T22:00:55.836Z,99936.56
2019-02-18T22:03:30.415Z,99945.64
2019-02-18T22:06:04.055Z,99936.24
2019-02-18T22:08:37.573Z,99938.06
2019-02-18T22:11:14.450Z,99939.89
2019-02-18T22:13:49.971Z,99943.20
2019-02-18T22:16:42.598Z,99943.56
2019-02-18T22:19:18.342Z,99940.05
2019-02-18T22:21:51.541Z,99943.92
2019-02-18T22:24:26.311Z,99944.91
2019-02-18T22:26:59.817Z,99944.32
2019-02-18T22:29:34.513Z,99947.34
2019-02-18T22:32:07.548Z,99950.61
2019-02-18T22:34:41.364Z,99945.80
2019-02-18T22:37:15.571Z,99945.28
2019-02-18T22:39:50.163Z,99943.25
2019-02-18T22:42:22.751Z,99942.38
2019-02-18T22:44:55.651Z,99944.52
2019-02-18T22:47:28.734Z,99941.39
2019-02-18T22:50:01.532Z,99939.05
2019-02-18T22:52:34.175Z,99934.72
2019-02-18T22:55:07.989Z,99933.28
2019-02-18T22:57:40.474Z,99929.17
2019-02-18T23:00:55.945Z,99935.35
2019-02-18T23:03:30.432Z,99937.02
2019-02-18T23:06:05.872Z,99937.30
2019-02-18T23:08:48.946Z,99935.22
2019-02-18T23:11:21.753Z,99937.20
2019-02-18T23:13:55.091Z,99935.91
2019-02-18T23:16:29.127Z,99935.69
2019-02-18T23:19:03.336Z,99933.45
2019-02-18T23:21:36.622Z,99935.52
2019-02-18T23:24:10.098Z,99930.32
2019-02-18T23:26:44.810Z,99931.41
2019-02-18T23:29:21.726Z,99926.34
2019-02-18T23:31:57.174Z,99923.49
2019-02-18T23:34:30.918Z,99926.95
2019-02-18T23:37:04.078Z,99926.45
2019-02-18T23:39:38.491Z,99925.96
2019-02-18T23:42:12.545Z,99931.16
2019-02-18T23:44:46.558Z,99935.12
2019-02-18T23:47:19.098Z,99937.67
2019-02-18T23:49:52.532Z,99935.02
2019-02-18T23:52:26.671Z,99935.95
2019-02-18T23:55:00.882Z,99932.81
2019-02-18T23:57:33.596Z,99936.28
